sensor_id;sensor_type;location;lat;lon;timestamp;pressure;altitude;pressure_sealevel;temperature;humidity
77737;BME280;66903;59.926;30.404;2023-07-29T00:03:31;100102.16;;;24.47;45.39
77737;BME280;66903;59.926;30.404;2023-07-29T00:08:32;100104.81;;;24.43;45.73
77737;BME280;66903;59.926;30.404;2023-07-29T00:13:33;100099.22;;;24.38;45.85
77737;BME280;66903;59.926;30.404;2023-07-29T00:18:33;100100.50;;;24.32;45.93
77737;BME280;66903;59.926;30.404;2023-07-29T00:23:34;100101.16;;;24.29;46.31
77737;BME280;66903;59.926;30.404;2023-07-29T00:28:34;100102.97;;;24.25;46.15
77737;BME280;66903;59.926;30.404;2023-07-29T00:33:35;100112.50;;;24.21;46.27
77737;BME280;66903;59.926;30.404;2023-07-29T00:38:35;100100.03;;;24.17;46.61
77737;BME280;66903;59.926;30.404;2023-07-29T00:43:36;100108.72;;;24.12;46.93
77737;BME280;66903;59.926;30.404;2023-07-29T00:48:37;100125.09;;;24.06;46.39
77737;BME280;66903;59.926;30.404;2023-07-29T00:53:38;100122.91;;;24.03;46.65
77737;BME280;66903;59.926;30.404;2023-07-29T00:58:38;100125.75;;;24.03;46.73
77737;BME280;66903;59.926;30.404;2023-07-29T01:03:39;100126.91;;;24.02;46.59
77737;BME280;66903;59.926;30.404;2023-07-29T01:08:46;100129.22;;;24.00;46.93
77737;BME280;66903;59.926;30.404;2023-07-29T01:14:01;100144.94;;;23.97;46.86
77737;BME280;66903;59.926;30.404;2023-07-29T01:19:05;100148.75;;;23.93;46.80
77737;BME280;66903;59.926;30.404;2023-07-29T01:24:09;100142.13;;;23.84;47.08
77737;BME280;66903;59.926;30.404;2023-07-29T01:29:10;100152.47;;;23.80;47.01
77737;BME280;66903;59.926;30.404;2023-07-29T01:34:20;100146.88;;;23.75;46.81
77737;BME280;66903;59.926;30.404;2023-07-29T01:39:27;100144.97;;;23.70;47.00
77737;BME280;66903;59.926;30.404;2023-07-29T01:44:29;100148.25;;;23.64;47.53
77737;BME280;66903;59.926;30.404;2023-07-29T01:49:30;100152.56;;;23.61;47.42
77737;BME280;66903;59.926;30.404;2023-07-29T01:54:30;100154.25;;;23.62;47.09
77737;BME280;66903;59.926;30.404;2023-07-29T01:59:31;100140.84;;;23.49;47.58
77737;BME280;66903;59.926;30.404;2023-07-29T02:04:31;100154.44;;;23.39;47.38
77737;BME280;66903;59.926;30.404;2023-07-29T02:09:32;100150.16;;;23.23;47.67
77737;BME280;66903;59.926;30.404;2023-07-29T02:14:33;100163.03;;;23.07;47.98
77737;BME280;66903;59.926;30.404;2023-07-29T02:19:33;100166.44;;;22.90;48.30
77737;BME280;66903;59.926;30.404;2023-07-29T02:24:34;100165.69;;;22.84;48.29
77737;BME280;66903;59.926;30.404;2023-07-29T02:29:34;100163.25;;;22.78;48.34
77737;BME280;66903;59.926;30.404;2023-07-29T02:34:35;100154.69;;;22.78;48.19
77737;BME280;66903;59.926;30.404;2023-07-29T02:39:36;100162.94;;;22.79;48.78
77737;BME280;66903;59.926;30.404;2023-07-29T02:44:37;100161.91;;;22.89;48.60
77737;BME280;66903;59.926;30.404;2023-07-29T02:49:38;100167.22;;;22.95;48.26
77737;BME280;66903;59.926;30.404;2023-07-29T02:54:38;100175.66;;;23.00;48.24
77737;BME280;66903;59.926;30.404;2023-07-29T02:59:39;100175.88;;;23.04;48.46
77737;BME280;66903;59.926;30.404;2023-07-29T03:04:39;100182.34;;;23.10;48.54
77737;BME280;66903;59.926;30.404;2023-07-29T03:09:40;100187.94;;;23.15;48.60
77737;BME280;66903;59.926;30.404;2023-07-29T03:14:42;100198.69;;;23.18;48.15
77737;BME280;66903;59.926;30.404;2023-07-29T03:19:42;100195.75;;;23.23;48.09
77737;BME280;66903;59.926;30.404;2023-07-29T03:24:43;100200.00;;;23.25;48.08
77737;BME280;66903;59.926;30.404;2023-07-29T03:29:43;100195.69;;;23.28;48.17
77737;BME280;66903;59.926;30.404;2023-07-29T03:34:44;100187.44;;;23.26;48.68
77737;BME280;66903;59.926;30.404;2023-07-29T03:39:45;100184.81;;;23.30;48.10
77737;BME280;66903;59.926;30.404;2023-07-29T03:44:45;100192.47;;;23.34;48.19
77737;BME280;66903;59.926;30.404;2023-07-29T03:49:46;100201.13;;;23.43;47.84
77737;BME280;66903;59.926;30.404;2023-07-29T03:54:46;100194.19;;;23.49;48.11
77737;BME280;66903;59.926;30.404;2023-07-29T03:59:47;100200.59;;;23.54;47.71
77737;BME280;66903;59.926;30.404;2023-07-29T04:04:47;100203.38;;;23.59;47.67
77737;BME280;66903;59.926;30.404;2023-07-29T04:09:48;100208.97;;;23.64;47.81
77737;BME280;66903;59.926;30.404;2023-07-29T04:14:49;100212.47;;;23.75;47.46
77737;BME280;66903;59.926;30.404;2023-07-29T04:19:50;100213.31;;;23.89;47.46
77737;BME280;66903;59.926;30.404;2023-07-29T04:24:50;100202.88;;;24.12;47.37
77737;BME280;66903;59.926;30.404;2023-07-29T04:29:51;100215.31;;;24.43;46.56
77737;BME280;66903;59.926;30.404;2023-07-29T04:34:51;100201.69;;;24.75;46.29
77737;BME280;66903;59.926;30.404;2023-07-29T04:39:52;100206.44;;;25.02;45.99
77737;BME280;66903;59.926;30.404;2023-07-29T04:44:52;100208.94;;;25.17;45.95
77737;BME280;66903;59.926;30.404;2023-07-29T04:49:53;100206.13;;;25.26;45.53
77737;BME280;66903;59.926;30.404;2023-07-29T04:54:53;100210.03;;;25.30;45.74
77737;BME280;66903;59.926;30.404;2023-07-29T04:59:54;100205.22;;;25.39;45.19
77737;BME280;66903;59.926;30.404;2023-07-29T05:04:54;100196.25;;;25.54;45.30
77737;BME280;66903;59.926;30.404;2023-07-29T05:09:55;100191.13;;;25.73;45.17
77737;BME280;66903;59.926;30.404;2023-07-29T05:14:55;100212.91;;;25.91;44.98
77737;BME280;66903;59.926;30.404;2023-07-29T05:19:56;100205.50;;;25.98;44.82
77737;BME280;66903;59.926;30.404;2023-07-29T05:24:56;100202.66;;;25.98;44.76
77737;BME280;66903;59.926;30.404;2023-07-29T05:29:57;100199.75;;;25.90;44.76
77737;BME280;66903;59.926;30.404;2023-07-29T05:34:57;100197.84;;;26.07;44.30
77737;BME280;66903;59.926;30.404;2023-07-29T05:39:58;100208.78;;;26.14;44.45
77737;BME280;66903;59.926;30.404;2023-07-29T05:44:59;100196.38;;;26.18;44.32
77737;BME280;66903;59.926;30.404;2023-07-29T05:50:00;100191.72;;;26.57;43.94
77737;BME280;66903;59.926;30.404;2023-07-29T05:55:04;100189.41;;;26.93;43.17
77737;BME280;66903;59.926;30.404;2023-07-29T06:00:06;100198.31;;;26.91;42.73
77737;BME280;66903;59.926;30.404;2023-07-29T06:05:07;100192.59;;;26.83;43.12
77737;BME280;66903;59.926;30.404;2023-07-29T06:10:08;100192.78;;;26.78;43.08
77737;BME280;66903;59.926;30.404;2023-07-29T06:15:13;100192.22;;;26.50;43.72
77737;BME280;66903;59.926;30.404;2023-07-29T06:20:14;100187.00;;;26.44;43.88
77737;BME280;66903;59.926;30.404;2023-07-29T06:25:14;100174.69;;;26.60;43.55
77737;BME280;66903;59.926;30.404;2023-07-29T06:30:15;100176.59;;;26.82;43.00
77737;BME280;66903;59.926;30.404;2023-07-29T06:35:16;100168.84;;;26.99;42.97
77737;BME280;66903;59.926;30.404;2023-07-29T06:40:16;100164.09;;;27.12;42.42
77737;BME280;66903;59.926;30.404;2023-07-29T06:45:17;100165.41;;;27.23;42.57
77737;BME280;66903;59.926;30.404;2023-07-29T06:50:17;100173.19;;;27.40;42.49
77737;BME280;66903;59.926;30.404;2023-07-29T06:55:18;100166.06;;;27.46;42.04
77737;BME280;66903;59.926;30.404;2023-07-29T07:00:18;100169.59;;;27.51;41.99
77737;BME280;66903;59.926;30.404;2023-07-29T07:05:19;100160.09;;;27.68;41.90
77737;BME280;66903;59.926;30.404;2023-07-29T07:10:20;100164.31;;;28.08;42.11
77737;BME280;66903;59.926;30.404;2023-07-29T07:15:21;100154.38;;;28.55;40.94
77737;BME280;66903;59.926;30.404;2023-07-29T07:20:21;100159.44;;;28.99;40.91
77737;BME280;66903;59.926;30.404;2023-07-29T07:25:22;100162.72;;;29.42;40.05
77737;BME280;66903;59.926;30.404;2023-07-29T07:30:22;100139.78;;;29.67;39.60
77737;BME280;66903;59.926;30.404;2023-07-29T07:35:23;100149.31;;;29.91;39.71
77737;BME280;66903;59.926;30.404;2023-07-29T07:40:23;100143.78;;;30.10;39.46
77737;BME280;66903;59.926;30.404;2023-07-29T07:45:24;100146.28;;;30.24;39.06
77737;BME280;66903;59.926;30.404;2023-07-29T07:50:24;100140.53;;;30.24;39.22
77737;BME280;66903;59.926;30.404;2023-07-29T07:55:25;100144.28;;;30.36;39.03
77737;BME280;66903;59.926;30.404;2023-07-29T08:00:25;100139.44;;;30.53;38.52
77737;BME280;66903;59.926;30.404;2023-07-29T08:05:26;100143.13;;;30.65;38.14
77737;BME280;66903;59.926;30.404;2023-07-29T08:10:27;100142.41;;;30.80;37.51
77737;BME280;66903;59.926;30.404;2023-07-29T08:15:27;100121.03;;;30.97;36.69
77737;BME280;66903;59.926;30.404;2023-07-29T08:20:28;100135.34;;;30.93;38.19
77737;BME280;66903;59.926;30.404;2023-07-29T08:25:28;100131.44;;;30.86;38.73
77737;BME280;66903;59.926;30.404;2023-07-29T08:30:29;100128.56;;;30.86;38.87
77737;BME280;66903;59.926;30.404;2023-07-29T08:35:29;100118.06;;;30.93;38.70
77737;BME280;66903;59.926;30.404;2023-07-29T08:40:31;100125.09;;;31.08;38.57
77737;BME280;66903;59.926;30.404;2023-07-29T08:45:35;100127.19;;;31.23;38.50
77737;BME280;66903;59.926;30.404;2023-07-29T08:50:37;100124.38;;;31.38;37.97
77737;BME280;66903;59.926;30.404;2023-07-29T08:55:38;100136.22;;;31.49;38.09
77737;BME280;66903;59.926;30.404;2023-07-29T09:00:40;100133.53;;;31.56;37.53
77737;BME280;66903;59.926;30.404;2023-07-29T09:05:40;100124.19;;;31.63;37.44
77737;BME280;66903;59.926;30.404;2023-07-29T09:10:41;100132.78;;;31.75;37.40
77737;BME280;66903;59.926;30.404;2023-07-29T09:15:42;100131.78;;;31.83;37.60
77737;BME280;66903;59.926;30.404;2023-07-29T09:20:42;100117.25;;;31.79;37.19
77737;BME280;66903;59.926;30.404;2023-07-29T09:25:46;100118.16;;;31.68;37.94
77737;BME280;66903;59.926;30.404;2023-07-29T09:30:46;100125.22;;;31.55;40.22
77737;BME280;66903;59.926;30.404;2023-07-29T09:35:47;100116.91;;;31.37;39.67
77737;BME280;66903;59.926;30.404;2023-07-29T09:40:48;100125.66;;;31.13;37.62
77737;BME280;66903;59.926;30.404;2023-07-29T09:45:51;100131.81;;;30.84;37.79
77737;BME280;66903;59.926;30.404;2023-07-29T09:50:52;100120.94;;;30.54;36.85
77737;BME280;66903;59.926;30.404;2023-07-29T09:55:53;100124.72;;;30.30;37.58
77737;BME280;66903;59.926;30.404;2023-07-29T10:00:53;100133.78;;;30.20;37.51
77737;BME280;66903;59.926;30.404;2023-07-29T10:05:55;100131.41;;;30.22;37.93
77737;BME280;66903;59.926;30.404;2023-07-29T10:10:55;100137.53;;;30.32;37.65
77737;BME280;66903;59.926;30.404;2023-07-29T10:15:58;100134.78;;;30.36;39.55
77737;BME280;66903;59.926;30.404;2023-07-29T10:20:59;100146.56;;;30.31;39.69
77737;BME280;66903;59.926;30.404;2023-07-29T10:26:03;100134.53;;;30.29;40.36
77737;BME280;66903;59.926;30.404;2023-07-29T10:31:04;100142.34;;;30.28;39.60
77737;BME280;66903;59.926;30.404;2023-07-29T10:36:05;100130.53;;;30.21;39.83
77737;BME280;66903;59.926;30.404;2023-07-29T10:41:06;100124.34;;;30.19;39.24
77737;BME280;66903;59.926;30.404;2023-07-29T10:46:20;100128.16;;;30.11;39.80
77737;BME280;66903;59.926;30.404;2023-07-29T10:51:37;100125.88;;;30.17;39.44
77737;BME280;66903;59.926;30.404;2023-07-29T10:56:42;100121.34;;;30.16;39.55
77737;BME280;66903;59.926;30.404;2023-07-29T11:01:51;100126.00;;;30.32;39.93
77737;BME280;66903;59.926;30.404;2023-07-29T11:07:24;100118.44;;;30.40;39.85
77737;BME280;66903;59.926;30.404;2023-07-29T11:12:45;100122.63;;;30.42;38.88
77737;BME280;66903;59.926;30.404;2023-07-29T11:18:06;100131.88;;;30.36;39.82
77737;BME280;66903;59.926;30.404;2023-07-29T11:23:08;100126.63;;;30.26;39.83
77737;BME280;66903;59.926;30.404;2023-07-29T11:28:09;100119.03;;;30.21;38.35
77737;BME280;66903;59.926;30.404;2023-07-29T11:33:10;100112.47;;;30.09;39.59
77737;BME280;66903;59.926;30.404;2023-07-29T11:38:15;100119.53;;;30.11;40.55
77737;BME280;66903;59.926;30.404;2023-07-29T11:43:17;100118.66;;;30.11;40.34
77737;BME280;66903;59.926;30.404;2023-07-29T11:48:31;100110.50;;;30.13;39.53
77737;BME280;66903;59.926;30.404;2023-07-29T11:53:32;100103.34;;;30.07;39.14
77737;BME280;66903;59.926;30.404;2023-07-29T11:58:32;100111.97;;;30.07;40.46
77737;BME280;66903;59.926;30.404;2023-07-29T12:03:33;100097.94;;;30.05;40.24
77737;BME280;66903;59.926;30.404;2023-07-29T12:08:34;100111.13;;;30.06;38.69
77737;BME280;66903;59.926;30.404;2023-07-29T12:13:38;100106.09;;;30.03;39.39
77737;BME280;66903;59.926;30.404;2023-07-29T12:18:38;100108.38;;;29.98;39.79
77737;BME280;66903;59.926;30.404;2023-07-29T12:23:39;100110.78;;;29.96;39.53
77737;BME280;66903;59.926;30.404;2023-07-29T12:28:45;100117.97;;;29.90;39.11
77737;BME280;66903;59.926;30.404;2023-07-29T12:33:46;100114.50;;;29.84;38.69
77737;BME280;66903;59.926;30.404;2023-07-29T12:38:46;100114.50;;;29.84;38.99
77737;BME280;66903;59.926;30.404;2023-07-29T12:43:47;100110.41;;;29.85;38.73
77737;BME280;66903;59.926;30.404;2023-07-29T12:48:47;100113.41;;;29.89;38.97
77737;BME280;66903;59.926;30.404;2023-07-29T12:53:48;100112.19;;;29.90;39.17
77737;BME280;66903;59.926;30.404;2023-07-29T12:58:48;100106.56;;;29.93;39.37
77737;BME280;66903;59.926;30.404;2023-07-29T13:03:49;100111.97;;;29.95;38.35
77737;BME280;66903;59.926;30.404;2023-07-29T13:08:50;100115.44;;;29.88;39.20
77737;BME280;66903;59.926;30.404;2023-07-29T13:13:50;100115.31;;;29.85;39.17
77737;BME280;66903;59.926;30.404;2023-07-29T13:18:51;100127.09;;;29.80;39.37
77737;BME280;66903;59.926;30.404;2023-07-29T13:23:52;100129.00;;;29.76;38.57
77737;BME280;66903;59.926;30.404;2023-07-29T13:28:52;100143.63;;;29.71;38.63
77737;BME280;66903;59.926;30.404;2023-07-29T13:33:53;100143.47;;;29.67;39.44
77737;BME280;66903;59.926;30.404;2023-07-29T13:38:54;100147.56;;;29.66;39.09
77737;BME280;66903;59.926;30.404;2023-07-29T13:43:54;100158.22;;;29.66;39.11
77737;BME280;66903;59.926;30.404;2023-07-29T13:48:55;100157.53;;;29.69;39.33
77737;BME280;66903;59.926;30.404;2023-07-29T13:53:55;100146.13;;;29.72;39.30
77737;BME280;66903;59.926;30.404;2023-07-29T13:58:56;100155.13;;;29.71;39.00
77737;BME280;66903;59.926;30.404;2023-07-29T14:03:57;100152.75;;;29.73;39.47
77737;BME280;66903;59.926;30.404;2023-07-29T14:08:57;100140.06;;;29.74;38.77
77737;BME280;66903;59.926;30.404;2023-07-29T14:13:58;100153.72;;;29.77;38.92
77737;BME280;66903;59.926;30.404;2023-07-29T14:18:58;100154.69;;;29.81;39.50
77737;BME280;66903;59.926;30.404;2023-07-29T14:23:59;100161.03;;;29.86;38.98
77737;BME280;66903;59.926;30.404;2023-07-29T14:28:59;100168.97;;;30.01;39.15
77737;BME280;66903;59.926;30.404;2023-07-29T14:34:00;100157.81;;;30.12;37.89
77737;BME280;66903;59.926;30.404;2023-07-29T14:39:00;100161.56;;;30.12;37.38
77737;BME280;66903;59.926;30.404;2023-07-29T14:44:01;100157.94;;;30.15;38.08
77737;BME280;66903;59.926;30.404;2023-07-29T14:49:01;100164.31;;;30.21;37.26
77737;BME280;66903;59.926;30.404;2023-07-29T14:54:02;100153.97;;;30.20;37.68
77737;BME280;66903;59.926;30.404;2023-07-29T14:59:03;100167.81;;;30.26;37.63
77737;BME280;66903;59.926;30.404;2023-07-29T15:04:03;100168.16;;;30.25;36.60
77737;BME280;66903;59.926;30.404;2023-07-29T15:09:04;100185.53;;;29.80;36.45
77737;BME280;66903;59.926;30.404;2023-07-29T15:14:05;100190.19;;;29.73;37.22
77737;BME280;66903;59.926;30.404;2023-07-29T15:19:06;100193.06;;;29.73;36.69
77737;BME280;66903;59.926;30.404;2023-07-29T15:24:07;100191.66;;;29.58;36.60
77737;BME280;66903;59.926;30.404;2023-07-29T15:29:07;100195.47;;;29.38;36.94
77737;BME280;66903;59.926;30.404;2023-07-29T15:34:08;100195.41;;;29.26;36.90
77737;BME280;66903;59.926;30.404;2023-07-29T15:39:08;100181.84;;;29.06;36.46
77737;BME280;66903;59.926;30.404;2023-07-29T15:44:09;100182.16;;;28.72;37.74
77737;BME280;66903;59.926;30.404;2023-07-29T15:49:10;100179.44;;;28.75;37.41
77737;BME280;66903;59.926;30.404;2023-07-29T15:54:11;100165.28;;;28.70;37.35
77737;BME280;66903;59.926;30.404;2023-07-29T15:59:11;100167.53;;;28.65;37.48
77737;BME280;66903;59.926;30.404;2023-07-29T16:04:12;100168.47;;;28.69;37.71
77737;BME280;66903;59.926;30.404;2023-07-29T16:09:12;100175.63;;;28.83;38.96
77737;BME280;66903;59.926;30.404;2023-07-29T16:14:13;100167.59;;;29.09;39.89
77737;BME280;66903;59.926;30.404;2023-07-29T16:19:23;100174.59;;;29.41;39.11
77737;BME280;66903;59.926;30.404;2023-07-29T16:24:23;100168.31;;;29.60;39.50
77737;BME280;66903;59.926;30.404;2023-07-29T16:29:24;100170.38;;;29.71;39.25
77737;BME280;66903;59.926;30.404;2023-07-29T16:34:24;100168.59;;;29.79;39.17
77737;BME280;66903;59.926;30.404;2023-07-29T16:39:25;100160.34;;;29.77;40.07
77737;BME280;66903;59.926;30.404;2023-07-29T16:44:26;100171.44;;;29.67;41.03
77737;BME280;66903;59.926;30.404;2023-07-29T16:49:26;100168.31;;;29.60;38.38
77737;BME280;66903;59.926;30.404;2023-07-29T16:54:27;100168.72;;;29.50;41.42
77737;BME280;66903;59.926;30.404;2023-07-29T16:59:27;100164.44;;;29.56;40.93
77737;BME280;66903;59.926;30.404;2023-07-29T17:04:28;100171.75;;;29.53;38.70
77737;BME280;66903;59.926;30.404;2023-07-29T17:09:28;100168.56;;;29.34;41.22
77737;BME280;66903;59.926;30.404;2023-07-29T17:14:29;100174.78;;;29.24;40.96
77737;BME280;66903;59.926;30.404;2023-07-29T17:19:30;100179.19;;;29.21;39.62
77737;BME280;66903;59.926;30.404;2023-07-29T17:24:30;100183.06;;;29.05;40.74
77737;BME280;66903;59.926;30.404;2023-07-29T17:29:31;100178.84;;;29.02;40.75
77737;BME280;66903;59.926;30.404;2023-07-29T17:34:32;100183.19;;;29.08;40.36
77737;BME280;66903;59.926;30.404;2023-07-29T17:39:32;100191.69;;;29.05;39.19
77737;BME280;66903;59.926;30.404;2023-07-29T17:44:33;100193.59;;;29.01;39.47
77737;BME280;66903;59.926;30.404;2023-07-29T17:49:33;100192.13;;;28.95;39.81
77737;BME280;66903;59.926;30.404;2023-07-29T17:54:34;100186.03;;;28.96;39.77
77737;BME280;66903;59.926;30.404;2023-07-29T17:59:34;100193.44;;;28.97;38.81
77737;BME280;66903;59.926;30.404;2023-07-29T18:04:35;100206.38;;;29.12;40.18
77737;BME280;66903;59.926;30.404;2023-07-29T18:09:35;100207.06;;;29.29;37.85
77737;BME280;66903;59.926;30.404;2023-07-29T18:14:36;100213.50;;;29.26;38.61
77737;BME280;66903;59.926;30.404;2023-07-29T18:19:38;100212.41;;;29.19;39.27
77737;BME280;66903;59.926;30.404;2023-07-29T18:24:41;100209.81;;;29.26;38.91
77737;BME280;66903;59.926;30.404;2023-07-29T18:29:42;100218.69;;;29.33;38.79
77737;BME280;66903;59.926;30.404;2023-07-29T18:34:43;100222.66;;;29.40;39.85
77737;BME280;66903;59.926;30.404;2023-07-29T18:39:43;100226.66;;;29.48;39.38
77737;BME280;66903;59.926;30.404;2023-07-29T18:44:44;100262.72;;;29.66;38.32
77737;BME280;66903;59.926;30.404;2023-07-29T18:49:44;100284.34;;;29.72;38.59
77737;BME280;66903;59.926;30.404;2023-07-29T18:54:45;100304.91;;;29.83;38.05
77737;BME280;66903;59.926;30.404;2023-07-29T18:59:46;100311.28;;;29.88;38.34
77737;BME280;66903;59.926;30.404;2023-07-29T19:04:46;100304.47;;;29.93;38.60
77737;BME280;66903;59.926;30.404;2023-07-29T19:09:48;100299.75;;;29.88;38.29
77737;BME280;66903;59.926;30.404;2023-07-29T19:14:49;100289.28;;;29.72;38.30
77737;BME280;66903;59.926;30.404;2023-07-29T19:19:49;100277.03;;;29.42;38.84
77737;BME280;66903;59.926;30.404;2023-07-29T19:24:50;100274.25;;;29.04;39.36
77737;BME280;66903;59.926;30.404;2023-07-29T19:29:50;100275.75;;;28.61;39.76
77737;BME280;66903;59.926;30.404;2023-07-29T19:34:53;100260.50;;;28.31;40.61
77737;BME280;66903;59.926;30.404;2023-07-29T19:39:55;100240.34;;;28.02;41.62
77737;BME280;66903;59.926;30.404;2023-07-29T19:44:55;100231.44;;;27.78;41.38
77737;BME280;66903;59.926;30.404;2023-07-29T19:49:56;100219.88;;;27.23;42.19
77737;BME280;66903;59.926;30.404;2023-07-29T19:54:57;100224.81;;;26.80;42.58
77737;BME280;66903;59.926;30.404;2023-07-29T19:59:57;100213.69;;;26.13;43.28
77737;BME280;66903;59.926;30.404;2023-07-29T20:04:58;100223.03;;;25.58;43.99
77737;BME280;66903;59.926;30.404;2023-07-29T20:09:58;100213.78;;;25.39;44.37
77737;BME280;66903;59.926;30.404;2023-07-29T20:14:59;100213.34;;;25.76;44.80
77737;BME280;66903;59.926;30.404;2023-07-29T20:20:03;100212.53;;;26.23;43.47
77737;BME280;66903;59.926;30.404;2023-07-29T20:25:04;100204.03;;;26.57;43.77
77737;BME280;66903;59.926;30.404;2023-07-29T20:30:05;100218.91;;;27.02;42.95
77737;BME280;66903;59.926;30.404;2023-07-29T20:35:06;100219.09;;;27.31;41.82
77737;BME280;66903;59.926;30.404;2023-07-29T20:40:08;100221.09;;;27.31;41.69
77737;BME280;66903;59.926;30.404;2023-07-29T20:45:08;100215.03;;;27.06;41.78
77737;BME280;66903;59.926;30.404;2023-07-29T20:50:09;100219.25;;;26.75;42.40
77737;BME280;66903;59.926;30.404;2023-07-29T20:55:10;100228.25;;;26.43;43.64
77737;BME280;66903;59.926;30.404;2023-07-29T21:00:11;100216.34;;;26.58;43.76
77737;BME280;66903;59.926;30.404;2023-07-29T21:05:11;100230.88;;;27.12;42.65
77737;BME280;66903;59.926;30.404;2023-07-29T21:10:12;100236.56;;;27.64;42.29
77737;BME280;66903;59.926;30.404;2023-07-29T21:15:12;100236.66;;;27.84;42.21
77737;BME280;66903;59.926;30.404;2023-07-29T21:20:13;100244.44;;;27.92;42.28
77737;BME280;66903;59.926;30.404;2023-07-29T21:25:13;100240.03;;;27.95;42.14
77737;BME280;66903;59.926;30.404;2023-07-29T21:30:14;100247.03;;;27.68;42.11
77737;BME280;66903;59.926;30.404;2023-07-29T21:35:14;100248.44;;;27.45;42.42
77737;BME280;66903;59.926;30.404;2023-07-29T21:40:15;100254.03;;;27.33;42.47
77737;BME280;66903;59.926;30.404;2023-07-29T21:45:16;100257.69;;;26.99;42.82
77737;BME280;66903;59.926;30.404;2023-07-29T21:50:17;100257.09;;;26.63;44.08
77737;BME280;66903;59.926;30.404;2023-07-29T21:55:17;100255.03;;;26.30;44.72
77737;BME280;66903;59.926;30.404;2023-07-29T22:00:18;100256.84;;;25.95;44.93
77737;BME280;66903;59.926;30.404;2023-07-29T22:05:20;100253.88;;;25.69;45.15
77737;BME280;66903;59.926;30.404;2023-07-29T22:10:21;100252.91;;;25.07;46.29
77737;BME280;66903;59.926;30.404;2023-07-29T22:15:21;100258.72;;;24.67;47.38
77737;BME280;66903;59.926;30.404;2023-07-29T22:20:22;100257.34;;;24.64;47.34
77737;BME280;66903;59.926;30.404;2023-07-29T22:25:22;100262.00;;;24.60;47.76
77737;BME280;66903;59.926;30.404;2023-07-29T22:30:23;100254.91;;;24.58;47.82
77737;BME280;66903;59.926;30.404;2023-07-29T22:35:23;100262.97;;;24.56;47.83
77737;BME280;66903;59.926;30.404;2023-07-29T22:40:24;100256.09;;;24.57;47.81
77737;BME280;66903;59.926;30.404;2023-07-29T22:45:24;100253.44;;;24.60;48.07
77737;BME280;66903;59.926;30.404;2023-07-29T22:50:25;100262.66;;;24.71;48.28
77737;BME280;66903;59.926;30.404;2023-07-29T22:55:25;100263.06;;;24.78;48.33
77737;BME280;66903;59.926;30.404;2023-07-29T23:00:26;100267.91;;;24.77;48.21
77737;BME280;66903;59.926;30.404;2023-07-29T23:05:26;100271.31;;;24.79;48.56
77737;BME280;66903;59.926;30.404;2023-07-29T23:10:27;100278.72;;;24.80;48.48
77737;BME280;66903;59.926;30.404;2023-07-29T23:15:29;100276.50;;;24.77;48.48
77737;BME280;66903;59.926;30.404;2023-07-29T23:20:34;100273.63;;;24.77;48.70
77737;BME280;66903;59.926;30.404;2023-07-29T23:25:35;100271.63;;;24.78;48.53
77737;BME280;66903;59.926;30.404;2023-07-29T23:30:35;100268.78;;;24.78;49.00
77737;BME280;66903;59.926;30.404;2023-07-29T23:35:38;100275.53;;;24.82;48.96
77737;BME280;66903;59.926;30.404;2023-07-29T23:40:38;100264.13;;;24.82;48.72
77737;BME280;66903;59.926;30.404;2023-07-29T23:45:39;100276.16;;;24.79;49.13
77737;BME280;66903;59.926;30.404;2023-07-29T23:50:39;100275.53;;;24.82;49.03
77737;BME280;66903;59.926;30.404;2023-07-29T23:55:40;100265.75;;;24.96;48.68
